Time;durP1;ratioP1;P1;durP2;ratioP2;P2;SDS_P1;SDS_P2;PMS_P1;PMS_P2;Temp;Humidity;BMP_temperature;BMP_pressure;BME280_temperature;BME280_humidity;BME280_pressure;Samples;Min_cycle;Max_cycle;Signal;HPM_P1;HPM_P2
2022/05/28 00:02:23;;;;;;;7.77;2.40;;;;;;;10.87;67.01;100558.09;5121117;28;20527;-64
2022/05/28 00:04:50;;;;;;;10.13;1.93;;;;;;;10.77;67.53;100558.03;5107818;28;20462;-60
2022/05/28 00:07:17;;;;;;;9.83;2.43;;;;;;;10.67;67.73;100552.63;5122985;28;20480;-61
2022/05/28 00:09:44;;;;;;;9.83;2.70;;;;;;;10.67;67.68;100549.94;5112766;28;20517;-62
2022/05/28 00:12:10;;;;;;;8.83;2.57;;;;;;;10.75;67.73;100551.97;5118076;28;20483;-61
2022/05/28 00:14:37;;;;;;;5.90;2.13;;;;;;;10.87;67.30;100552.72;5118377;28;20499;-59
2022/05/28 00:17:04;;;;;;;8.40;2.33;;;;;;;10.83;67.38;100548.63;5121403;28;20478;-60
2022/05/28 00:19:32;;;;;;;7.57;2.87;;;;;;;10.92;66.82;100547.81;5108964;28;20502;-60
2022/05/28 00:21:59;;;;;;;8.10;2.33;;;;;;;10.99;66.64;100545.44;5120671;28;20504;-59
2022/05/28 00:24:27;;;;;;;7.20;2.27;;;;;;;10.89;67.14;100551.59;5114662;28;20478;-59
2022/05/28 00:26:54;;;;;;;3.93;1.63;;;;;;;10.92;67.14;100543.31;5112777;28;20478;-60
2022/05/28 00:29:21;;;;;;;6.43;2.00;;;;;;;10.96;67.03;100545.72;5123635;28;20439;-60
2022/05/28 00:31:48;;;;;;;5.00;1.73;;;;;;;11.12;66.54;100543.38;5108808;28;20855;-60
2022/05/28 00:34:15;;;;;;;9.27;2.20;;;;;;;10.97;66.94;100542.03;5113652;28;20457;-60
2022/05/28 00:36:43;;;;;;;7.43;2.10;;;;;;;10.91;67.17;100543.44;5112972;28;20916;-60
2022/05/28 00:39:10;;;;;;;7.57;2.60;;;;;;;10.86;67.18;100540.31;5119209;28;20441;-60
2022/05/28 00:41:36;;;;;;;7.30;2.30;;;;;;;10.79;67.93;100533.84;5120242;28;20516;-60
2022/05/28 00:44:05;;;;;;;7.60;2.70;;;;;;;10.63;68.19;100529.81;5115830;28;20453;-60
2022/05/28 00:46:31;;;;;;;7.10;2.00;;;;;;;10.58;68.22;100520.53;5111036;28;20504;-60
2022/05/28 00:49:00;;;;;;;12.57;2.70;;;;;;;10.58;68.45;100521.34;5114070;28;20439;-60
2022/05/28 00:51:29;;;;;;;6.70;2.10;;;;;;;10.52;68.77;100520.06;5112161;28;21203;-60
2022/05/28 00:54:00;;;;;;;10.27;2.77;;;;;;;10.38;69.49;100515.09;5121474;28;20543;-60
2022/05/28 00:56:27;;;;;;;10.43;2.40;;;;;;;10.42;69.48;100526.34;5121182;28;20482;-60
2022/05/28 00:58:54;;;;;;;10.67;3.70;;;;;;;10.44;69.48;100522.56;5121512;28;20442;-60
2022/05/28 01:01:23;;;;;;;12.23;2.40;;;;;;;10.32;69.36;100520.94;5119284;28;20986;-59
2022/05/28 01:04:00;;;;;;;9.07;2.50;;;;;;;10.34;70.04;100519.00;5109039;28;20503;-60
2022/05/28 01:06:33;;;;;;;8.03;2.57;;;;;;;10.27;70.26;100515.97;5118948;28;20476;-60
2022/05/28 01:09:05;;;;;;;12.03;3.80;;;;;;;10.26;70.22;100511.63;5115442;28;20830;-60
2022/05/28 01:11:34;;;;;;;8.50;2.20;;;;;;;10.21;70.53;100511.16;5116676;28;20841;-59
2022/05/28 01:14:06;;;;;;;11.87;3.50;;;;;;;10.17;70.69;100520.41;5109166;28;20457;-60
2022/05/28 01:16:35;;;;;;;7.70;2.50;;;;;;;10.11;71.25;100513.75;5120578;28;20484;-60
2022/05/28 01:19:08;;;;;;;7.60;2.20;;;;;;;10.15;71.08;100509.00;5121535;28;20430;-59
2022/05/28 01:21:41;;;;;;;7.80;3.20;;;;;;;10.18;71.32;100519.44;5110097;28;20492;-61
2022/05/28 01:24:15;;;;;;;9.43;3.20;;;;;;;10.15;71.26;100517.00;5121302;28;20878;-60
2022/05/28 01:26:51;;;;;;;10.13;2.40;;;;;;;10.29;71.21;100519.34;5108684;28;20470;-60
2022/05/28 01:29:18;;;;;;;11.10;3.40;;;;;;;10.11;71.96;100512.94;5121405;28;20511;-59
2022/05/28 01:31:46;;;;;;;13.67;3.67;;;;;;;10.24;71.61;100518.06;5121653;28;20500;-59
2022/05/28 01:34:14;;;;;;;8.00;2.73;;;;;;;10.33;71.24;100519.97;5121361;28;20470;-59
2022/05/28 01:36:41;;;;;;;6.80;2.60;;;;;;;10.19;71.95;100510.44;5120087;28;21003;-60
2022/05/28 01:39:09;;;;;;;11.47;2.37;;;;;;;10.30;71.37;100514.88;5107931;28;20512;-59
2022/05/28 01:41:36;;;;;;;10.23;3.00;;;;;;;10.06;72.20;100509.78;5105490;28;20540;-60
2022/05/28 01:44:05;;;;;;;9.40;3.00;;;;;;;9.95;72.80;100508.88;5112657;28;20454;-59
2022/05/28 01:46:33;;;;;;;10.37;3.30;;;;;;;10.01;72.83;100507.50;5120234;28;20520;-59
2022/05/28 01:49:00;;;;;;;13.33;2.77;;;;;;;10.02;73.12;100508.38;5119998;28;20516;-59
2022/05/28 01:51:31;;;;;;;6.73;2.73;;;;;;;9.96;73.26;100512.41;5112396;28;20474;-59
2022/05/28 01:54:11;;;;;;;12.00;3.10;;;;;;;9.94;73.54;100504.50;5112421;28;20542;-59
2022/05/28 01:56:42;;;;;;;9.97;2.70;;;;;;;9.98;73.55;100502.41;5119872;28;21301;-58
2022/05/28 01:59:10;;;;;;;7.17;2.60;;;;;;;10.05;73.49;100508.09;5120921;28;20438;-59
2022/05/28 02:01:37;;;;;;;9.67;3.17;;;;;;;9.89;73.81;100503.22;5120732;28;20485;-59
2022/05/28 02:04:05;;;;;;;11.63;2.80;;;;;;;10.04;73.92;100507.25;5125735;28;20446;-59
2022/05/28 02:06:31;;;;;;;8.50;3.07;;;;;;;9.92;74.37;100502.97;5126321;28;20482;-60
2022/05/28 02:08:58;;;;;;;13.20;4.67;;;;;;;9.83;74.23;100495.75;5113861;28;20445;-59
2022/05/28 02:11:27;;;;;;;10.30;2.97;;;;;;;9.88;74.80;100493.53;5127752;28;20536;-60
2022/05/28 02:13:59;;;;;;;9.43;2.90;;;;;;;10.00;74.15;100497.81;5125401;28;20449;-61
2022/05/28 02:16:36;;;;;;;9.87;3.27;;;;;;;9.95;74.67;100505.38;5126514;28;20537;-60
2022/05/28 02:19:06;;;;;;;11.70;3.10;;;;;;;10.04;74.21;100504.59;5128384;28;20457;-60
2022/05/28 02:21:40;;;;;;;14.30;3.10;;;;;;;10.10;74.56;100501.41;5127282;28;20583;-60
2022/05/28 02:24:10;;;;;;;12.30;2.80;;;;;;;10.04;74.58;100499.25;5124011;28;20480;-60
2022/05/28 02:26:41;;;;;;;11.20;2.93;;;;;;;10.02;75.33;100498.53;5123385;28;20478;-59
2022/05/28 02:29:08;;;;;;;10.53;2.93;;;;;;;10.06;75.25;100491.94;5127963;28;20470;-60
2022/05/28 02:31:36;;;;;;;11.23;3.00;;;;;;;10.05;75.37;100500.94;5125271;28;20520;-60
2022/05/28 02:34:03;;;;;;;6.40;3.03;;;;;;;10.06;75.33;100505.28;5127807;28;20449;-60
2022/05/28 02:36:31;;;;;;;15.93;2.70;;;;;;;10.07;75.68;100498.97;5126669;28;20483;-60
2022/05/28 02:38:58;;;;;;;5.40;2.73;;;;;;;10.02;75.94;100493.19;5127861;28;20461;-59
2022/05/28 02:41:25;;;;;;;10.67;2.90;;;;;;;10.06;75.84;100499.94;5126355;28;20508;-59
2022/05/28 02:43:52;;;;;;;10.43;3.03;;;;;;;10.16;75.65;100503.53;5127875;28;20486;-60
2022/05/28 02:46:19;;;;;;;9.20;3.30;;;;;;;10.08;75.40;100489.13;5126671;28;20556;-59
2022/05/28 02:48:48;;;;;;;9.00;2.60;;;;;;;10.09;75.51;100498.84;5127460;28;21013;-59
2022/05/28 02:51:16;;;;;;;7.50;2.60;;;;;;;10.18;75.52;100503.41;5126357;28;20473;-60
2022/05/28 02:53:44;;;;;;;9.37;2.47;;;;;;;10.26;75.09;100514.28;5128103;28;20481;-60
2022/05/28 02:56:11;;;;;;;9.90;2.70;;;;;;;10.16;75.45;100511.53;5127473;28;20493;-59
2022/05/28 02:58:39;;;;;;;6.67;2.20;;;;;;;10.16;75.60;100513.38;5127922;28;20473;-60
2022/05/28 03:01:17;;;;;;;7.27;3.30;;;;;;;10.24;75.30;100512.72;5125433;28;20561;-60
2022/05/28 03:03:44;;;;;;;10.43;2.67;;;;;;;10.29;75.46;100500.63;5126983;28;20964;-60
2022/05/28 03:06:12;;;;;;;6.40;3.10;;;;;;;10.15;75.92;100507.16;5125981;28;20588;-60
2022/05/28 03:08:39;;;;;;;16.93;3.80;;;;;;;10.17;76.43;100512.38;5127591;28;20453;-60
2022/05/28 03:11:06;;;;;;;14.50;2.97;;;;;;;9.99;76.88;100521.00;5127011;28;20506;-60
2022/05/28 03:13:33;;;;;;;11.97;3.87;;;;;;;10.12;77.03;100511.94;5127297;28;20477;-60
2022/05/28 03:15:59;;;;;;;7.07;2.70;;;;;;;10.21;77.12;100512.97;5115136;28;20503;-60
2022/05/28 03:18:26;;;;;;;5.77;2.70;;;;;;;10.31;76.78;100513.88;5124532;28;20999;-60
2022/05/28 03:20:53;;;;;;;8.77;3.17;;;;;;;10.34;76.71;100517.16;5123267;28;20559;-60
2022/05/28 03:23:21;;;;;;;11.23;3.53;;;;;;;10.21;77.17;100519.19;5124039;28;20457;-61
2022/05/28 03:25:47;;;;;;;5.33;2.90;;;;;;;10.13;77.33;100522.50;5122804;28;20466;-60
2022/05/28 03:28:14;;;;;;;7.93;2.60;;;;;;;10.18;77.44;100525.63;5124527;28;20453;-59
2022/05/28 03:30:41;;;;;;;7.80;2.83;;;;;;;10.12;77.57;100523.47;5123773;28;20457;-59
2022/05/28 03:33:07;;;;;;;8.93;2.90;;;;;;;10.07;77.66;100517.69;5124007;28;20515;-60
2022/05/28 03:35:34;;;;;;;13.43;4.00;;;;;;;10.09;77.88;100525.56;5120054;28;20486;-60
2022/05/28 03:38:01;;;;;;;10.23;2.70;;;;;;;10.23;77.20;100527.91;5124361;28;21028;-60
2022/05/28 03:40:29;;;;;;;7.53;2.67;;;;;;;10.30;76.71;100530.91;5123147;28;20574;-60
2022/05/28 03:42:56;;;;;;;8.90;3.10;;;;;;;10.36;76.22;100533.94;5123331;28;20446;-60
2022/05/28 03:45:23;;;;;;;5.83;2.40;;;;;;;10.17;76.63;100534.63;5122545;28;20441;-59
2022/05/28 03:47:50;;;;;;;9.00;2.80;;;;;;;10.41;75.70;100538.84;5124149;28;20438;-60
2022/05/28 03:50:16;;;;;;;9.50;3.00;;;;;;;10.61;75.46;100526.44;5120019;28;20480;-59
2022/05/28 03:52:43;;;;;;;7.37;2.70;;;;;;;11.76;71.18;100535.84;5122021;28;20523;-58
2022/05/28 03:55:10;;;;;;;11.60;2.60;;;;;;;12.08;68.56;100534.72;5115034;28;20461;-59
2022/05/28 03:57:39;;;;;;;9.00;2.30;;;;;;;12.11;67.80;100535.25;5122565;28;20534;-59
2022/05/28 04:00:07;;;;;;;9.83;1.97;;;;;;;12.68;66.51;100540.63;5123499;28;20524;-59
2022/05/28 04:02:33;;;;;;;6.60;2.20;;;;;;;12.66;65.16;100536.41;5122198;28;20481;-59
2022/05/28 04:05:06;;;;;;;7.57;2.43;;;;;;;13.85;61.39;100539.94;5118004;28;20466;-59
2022/05/28 04:07:33;;;;;;;5.97;2.20;;;;;;;13.51;61.92;100532.56;5116742;28;20484;-59
2022/05/28 04:10:00;;;;;;;5.33;1.80;;;;;;;14.27;59.70;100536.56;5123091;28;20434;-60
2022/05/28 04:12:27;;;;;;;7.30;3.77;;;;;;;14.59;58.10;100543.16;5122634;28;20505;-59
2022/05/28 04:14:55;;;;;;;4.30;1.83;;;;;;;14.69;57.71;100540.38;5112047;27;20488;-59
2022/05/28 04:17:22;;;;;;;6.70;1.73;;;;;;;15.60;55.05;100546.88;5118907;28;20519;-59
2022/05/28 04:19:48;;;;;;;8.23;2.17;;;;;;;15.27;55.15;100552.19;5118153;28;20435;-59
2022/05/28 04:22:15;;;;;;;3.80;1.80;;;;;;;15.37;54.72;100541.28;5119006;28;20480;-60
2022/05/28 04:24:42;;;;;;;4.17;1.37;;;;;;;14.59;57.23;100550.41;5123137;28;20477;-59
2022/05/28 04:27:09;;;;;;;8.40;1.97;;;;;;;14.58;57.24;100548.66;5122507;28;20478;-59
2022/05/28 04:29:35;;;;;;;8.30;1.83;;;;;;;15.25;55.41;100555.06;5121943;28;20445;-60
2022/05/28 04:32:04;;;;;;;5.97;1.90;;;;;;;14.95;55.84;100551.09;5122001;28;20478;-61
2022/05/28 04:34:31;;;;;;;9.10;2.40;;;;;;;14.68;57.03;100554.81;5122933;28;20470;-60
2022/05/28 04:36:58;;;;;;;7.57;2.10;;;;;;;14.84;56.72;100557.59;5121247;28;20466;-61
2022/05/28 04:39:24;;;;;;;6.90;1.80;;;;;;;15.26;55.36;100550.53;5122344;28;20820;-60
2022/05/28 04:41:51;;;;;;;6.50;1.80;;;;;;;14.08;58.28;100556.41;5121529;28;20501;-59
2022/05/28 04:44:18;;;;;;;5.17;1.57;;;;;;;16.14;53.11;100560.78;5118426;28;20511;-60
2022/05/28 04:46:44;;;;;;;6.60;1.97;;;;;;;16.02;52.00;100559.41;5121374;28;20515;-60
2022/05/28 04:49:13;;;;;;;8.67;2.37;;;;;;;16.61;50.37;100567.28;5122446;28;20450;-60
2022/05/28 04:51:39;;;;;;;6.03;1.70;;;;;;;15.54;53.70;100574.50;5120617;28;20473;-59
2022/05/28 04:54:06;;;;;;;6.97;1.90;;;;;;;16.65;50.69;100563.22;5122261;28;20485;-60
2022/05/28 04:56:33;;;;;;;4.70;1.50;;;;;;;16.79;49.53;100574.31;5121020;28;20534;-61
2022/05/28 04:59:00;;;;;;;5.20;1.43;;;;;;;16.93;48.72;100568.25;5113103;28;20509;-61
2022/05/28 05:01:27;;;;;;;4.17;1.70;;;;;;;17.54;47.53;100573.03;5110629;28;20471;-60
2022/05/28 05:03:54;;;;;;;6.33;1.50;;;;;;;15.79;51.14;100570.84;5104805;28;20465;-62
2022/05/28 05:06:22;;;;;;;4.70;1.40;;;;;;;17.55;47.70;100583.66;5121797;28;20478;-60
2022/05/28 05:08:49;;;;;;;6.80;1.70;;;;;;;17.09;48.02;100586.25;5121158;28;20499;-60
2022/05/28 05:11:15;;;;;;;7.53;1.60;;;;;;;16.35;50.03;100581.84;5113107;28;20505;-61
2022/05/28 05:13:42;;;;;;;7.70;2.40;;;;;;;13.75;56.22;100577.63;5106770;28;20458;-61
2022/05/28 05:16:09;;;;;;;8.00;1.30;;;;;;;12.28;62.80;100579.25;5121519;28;20493;-61
2022/05/28 05:18:36;;;;;;;6.10;1.40;;;;;;;14.53;56.71;100589.53;5115941;28;20932;-59
2022/05/28 05:21:03;;;;;;;5.70;2.00;;;;;;;16.53;51.02;100591.59;5105032;28;20467;-60
2022/05/28 05:23:31;;;;;;;4.10;1.57;;;;;;;16.74;49.26;100582.94;5120357;28;20458;-61
2022/05/28 05:25:58;;;;;;;4.77;1.40;;;;;;;16.71;48.32;100594.91;5120591;28;20490;-60
2022/05/28 05:28:25;;;;;;;7.63;1.50;;;;;;;17.03;47.85;100593.19;5121047;28;20454;-60
2022/05/28 05:30:52;;;;;;;7.70;1.70;;;;;;;16.14;50.58;100601.25;5114524;28;20467;-61
2022/05/28 05:33:18;;;;;;;6.10;1.80;;;;;;;15.60;50.82;100600.78;5117357;28;20454;-60
2022/05/28 05:35:45;;;;;;;9.80;2.17;;;;;;;15.63;50.90;100608.56;5119904;28;20504;-60
2022/05/28 05:38:12;;;;;;;9.40;1.73;;;;;;;15.86;50.27;100599.88;5120517;28;20478;-59
2022/05/28 05:40:40;;;;;;;9.27;1.90;;;;;;;16.76;48.17;100608.75;5119922;28;20482;-61
2022/05/28 05:43:07;;;;;;;9.43;1.87;;;;;;;16.02;49.21;100615.22;5120865;28;20499;-60
2022/05/28 05:45:34;;;;;;;6.07;1.47;;;;;;;17.02;47.33;100613.09;5120328;28;20466;-60
2022/05/28 05:48:01;;;;;;;7.53;1.83;;;;;;;18.40;44.14;100615.19;5121014;28;20883;-59
2022/05/28 05:50:28;;;;;;;6.63;1.87;;;;;;;17.14;46.98;100610.88;5120166;28;20458;-59
2022/05/28 05:52:55;;;;;;;12.17;2.07;;;;;;;16.96;46.59;100603.00;5120798;28;21052;-59
2022/05/28 05:55:22;;;;;;;6.17;1.47;;;;;;;18.02;45.08;100593.50;5120625;28;20446;-60
2022/05/28 05:57:50;;;;;;;7.93;1.90;;;;;;;18.60;43.35;100604.66;5118715;28;20509;-60
2022/05/28 06:00:18;;;;;;;4.67;1.70;;;;;;;18.31;43.64;100608.13;5120687;28;20434;-60
2022/05/28 06:02:44;;;;;;;7.97;1.80;;;;;;;19.30;41.24;100607.13;5121463;28;20460;-63
2022/05/28 06:05:11;;;;;;;4.70;1.70;;;;;;;18.65;43.27;100598.69;5120588;28;20454;-61
2022/05/28 06:07:38;;;;;;;7.00;2.10;;;;;;;18.19;43.00;100601.47;5120310;28;20511;-63
2022/05/28 06:10:09;;;;;;;6.37;3.00;;;;;;;19.29;41.27;100605.44;5121253;28;20438;-61
2022/05/28 06:12:35;;;;;;;6.23;1.40;;;;;;;19.82;39.89;100602.53;5121177;28;20446;-66
2022/05/28 06:15:04;;;;;;;3.47;1.23;;;;;;;20.24;38.85;100607.13;5106638;28;20447;-60
2022/05/28 06:17:34;;;;;;;4.73;1.40;;;;;;;20.04;39.41;100615.06;5100171;28;20466;-62
2022/05/28 06:20:04;;;;;;;5.87;1.50;;;;;;;22.07;36.03;100611.47;5101119;28;20439;-61
2022/05/28 06:22:30;;;;;;;3.20;1.53;;;;;;;19.41;41.25;100603.94;5108528;28;20529;-63
2022/05/28 06:24:57;;;;;;;6.13;1.53;;;;;;;17.77;44.47;100614.44;5121816;28;20454;-60
2022/05/28 06:27:24;;;;;;;7.00;1.40;;;;;;;18.04;44.01;100610.38;5120815;28;20501;-61
2022/05/28 06:29:50;;;;;;;6.43;1.77;;;;;;;16.49;46.41;100620.78;5121020;28;20434;-60
2022/05/28 06:32:19;;;;;;;5.50;1.30;;;;;;;18.60;41.97;100611.94;5121393;28;20462;-61
2022/05/28 06:34:46;;;;;;;5.17;1.70;;;;;;;20.11;39.43;100617.88;5113381;28;20500;-61
2022/05/28 06:37:14;;;;;;;7.30;2.03;;;;;;;17.12;45.04;100616.44;5099711;28;20543;-61
2022/05/28 06:39:41;;;;;;;7.50;1.80;;;;;;;16.40;46.21;100613.69;5101310;28;20478;-62
2022/05/28 06:42:08;;;;;;;8.17;1.87;;;;;;;16.05;47.12;100614.88;5112246;28;20480;-61
2022/05/28 06:44:34;;;;;;;9.17;2.17;;;;;;;15.59;48.16;100616.13;5109392;28;20450;-62
2022/05/28 06:47:03;;;;;;;7.20;2.27;;;;;;;15.40;48.85;100608.31;5120896;28;20469;-64
2022/05/28 06:49:31;;;;;;;11.90;1.90;;;;;;;15.17;49.10;100605.34;5122054;28;20444;-65
2022/05/28 06:51:58;;;;;;;3.43;1.33;;;;;;;15.31;48.92;100604.75;5123295;28;20942;-64
2022/05/28 06:54:25;;;;;;;4.80;1.37;;;;;;;14.23;52.43;100597.00;5125462;27;20479;-62
2022/05/28 06:56:51;;;;;;;10.47;1.90;;;;;;;14.08;52.00;100601.28;5124660;28;20473;-61
2022/05/28 06:59:18;;;;;;;5.20;1.60;;;;;;;14.20;52.08;100599.16;5125068;28;20481;-62
2022/05/28 07:01:45;;;;;;;7.63;2.00;;;;;;;14.06;52.29;100597.88;5112018;28;20475;-60
2022/05/28 07:04:12;;;;;;;7.43;2.00;;;;;;;13.75;52.72;100601.81;5109584;28;20460;-62
2022/05/28 07:06:40;;;;;;;7.37;2.47;;;;;;;13.51;53.75;100607.75;5123779;28;20474;-61
2022/05/28 07:09:06;;;;;;;8.83;2.60;;;;;;;13.27;56.08;100604.78;5124662;28;20450;-63
2022/05/28 07:11:33;;;;;;;5.23;1.73;;;;;;;13.07;57.48;100612.94;5114481;28;20496;-60
2022/05/28 07:14:00;;;;;;;6.93;2.90;;;;;;;12.96;59.00;100619.31;5116107;27;20849;-63
2022/05/28 07:16:26;;;;;;;6.30;1.93;;;;;;;13.11;60.09;100619.69;5113501;28;20478;-60
2022/05/28 07:18:53;;;;;;;5.13;2.10;;;;;;;13.04;59.63;100615.91;5103698;28;20482;-59
2022/05/28 07:21:20;;;;;;;10.27;3.00;;;;;;;12.85;60.02;100611.44;5121565;28;20514;-59
2022/05/28 07:23:48;;;;;;;7.87;2.10;;;;;;;12.92;59.90;100622.44;5123551;28;20505;-60
2022/05/28 07:26:17;;;;;;;8.13;2.17;;;;;;;13.06;58.98;100626.50;5123178;28;20477;-60
2022/05/28 07:28:45;;;;;;;6.37;2.10;;;;;;;12.90;59.23;100606.50;5124090;28;20454;-59
2022/05/28 07:31:14;;;;;;;8.30;2.10;;;;;;;12.86;58.87;100610.44;5121024;28;21002;-60
2022/05/28 07:33:42;;;;;;;12.13;2.30;;;;;;;12.72;59.20;100611.75;5123853;28;20449;-60
2022/05/28 07:36:10;;;;;;;8.77;2.40;;;;;;;13.22;57.40;100615.94;5122974;28;20976;-60
2022/05/28 07:38:38;;;;;;;6.80;2.20;;;;;;;14.34;54.45;100613.91;5123504;28;20508;-61
2022/05/28 07:41:08;;;;;;;6.17;1.90;;;;;;;16.77;47.48;100606.91;5121398;28;20470;-61
2022/05/28 07:43:35;;;;;;;5.13;1.70;;;;;;;19.87;39.91;100600.91;5123551;28;20446;-61
2022/05/28 07:46:03;;;;;;;5.90;1.70;;;;;;;20.51;37.95;100604.63;5121253;28;21005;-61
2022/05/28 07:48:29;;;;;;;3.90;1.27;;;;;;;21.01;37.48;100599.13;5123150;28;20461;-62
2022/05/28 07:50:56;;;;;;;5.30;1.80;;;;;;;20.65;36.60;100603.72;5118674;28;20475;-63
2022/05/28 07:53:23;;;;;;;7.43;1.67;;;;;;;20.88;35.62;100608.03;5102065;28;20516;-61
2022/05/28 07:55:50;;;;;;;5.40;1.63;;;;;;;18.96;39.89;100603.97;5118250;28;20478;-62
2022/05/28 07:58:18;;;;;;;5.50;1.43;;;;;;;16.35;45.48;100618.75;5123013;28;20484;-62
2022/05/28 08:00:46;;;;;;;7.63;2.30;;;;;;;15.12;48.38;100622.03;5120575;28;20502;-62
2022/05/28 08:03:14;;;;;;;7.20;2.10;;;;;;;15.21;48.64;100609.44;5121961;28;20470;-64
2022/05/28 08:05:45;;;;;;;9.20;2.50;;;;;;;15.77;47.08;100623.28;5121649;28;20466;-64
2022/05/28 08:08:12;;;;;;;7.17;2.10;;;;;;;15.35;48.22;100613.34;5121271;28;20454;-63
2022/05/28 08:10:39;;;;;;;6.43;1.93;;;;;;;16.58;46.87;100621.63;5119095;28;20461;-62
2022/05/28 08:13:07;;;;;;;6.70;2.57;;;;;;;16.04;46.69;100611.34;5120653;28;20468;-62
2022/05/28 08:15:37;;;;;;;4.07;2.30;;;;;;;16.03;47.41;100615.03;5119643;27;20515;-62
2022/05/28 08:18:04;;;;;;;9.10;2.50;;;;;;;15.33;49.38;100607.25;5122351;28;20496;-62
2022/05/28 08:23:15;;;;;;;6.67;1.97;;;;;;;19.79;39.00;100603.78;5121684;28;20413;-62
2022/05/28 08:25:42;;;;;;;5.00;2.10;;;;;;;21.27;36.00;100603.88;5121370;28;20527;-62
2022/05/28 08:28:10;;;;;;;7.13;2.10;;;;;;;22.52;33.57;100600.81;5122440;28;20467;-63
2022/05/28 08:30:39;;;;;;;9.67;1.83;;;;;;;22.53;33.32;100605.19;5121457;28;20742;-64
2022/05/28 08:33:06;;;;;;;3.37;1.70;;;;;;;22.50;33.87;100603.75;5108482;28;20520;-63
2022/05/28 08:35:33;;;;;;;5.67;1.60;;;;;;;20.96;36.30;100605.16;5101116;28;20462;-62
2022/05/28 08:38:03;;;;;;;7.73;2.17;;;;;;;18.08;40.98;100613.56;5107977;28;20515;-65
2022/05/28 08:40:30;;;;;;;4.57;1.53;;;;;;;17.44;42.03;100613.78;5121557;28;20477;-62
2022/05/28 08:42:57;;;;;;;6.73;2.13;;;;;;;17.52;41.29;100615.63;5120965;28;20437;-62
2022/05/28 08:45:24;;;;;;;9.43;2.00;;;;;;;17.97;40.93;100605.91;5120084;28;20438;-62
2022/05/28 08:47:55;;;;;;;6.80;2.27;;;;;;;19.21;40.76;100602.84;5118175;28;20457;-62
2022/05/28 08:50:22;;;;;;;4.50;1.47;;;;;;;18.16;39.72;100605.41;5116345;27;20455;-64
2022/05/28 08:52:54;;;;;;;6.60;1.90;;;;;;;18.12;39.92;100611.34;5121172;27;21015;-63
2022/05/28 08:55:24;;;;;;;6.97;1.87;;;;;;;19.09;39.45;100589.75;5126471;27;20456;-65
2022/05/28 08:57:57;;;;;;;5.13;1.40;;;;;;;17.56;41.21;100593.44;5117182;28;20458;-62
2022/05/28 09:00:30;;;;;;;5.50;1.57;;;;;;;16.33;42.96;100607.28;5114037;28;20482;-63
2022/05/28 09:03:06;;;;;;;4.33;2.00;;;;;;;15.20;46.46;100605.03;5138060;27;20457;-62
2022/05/28 09:05:35;;;;;;;9.17;1.90;;;;;;;15.48;46.33;100611.03;5120213;28;20461;-62
2022/05/28 09:08:04;;;;;;;7.50;1.80;;;;;;;15.21;46.65;100602.19;5132072;27;20452;-63
2022/05/28 09:10:40;;;;;;;6.13;1.67;;;;;;;14.69;48.93;100611.16;5120976;27;20470;-63
2022/05/28 09:13:09;;;;;;;5.50;1.70;;;;;;;14.79;49.52;100612.91;5109215;28;20458;-63
2022/05/28 09:15:37;;;;;;;3.47;1.70;;;;;;;14.42;50.42;100628.25;5119000;28;20462;-62
2022/05/28 09:18:06;;;;;;;7.40;2.20;;;;;;;14.21;50.85;100625.91;5113293;27;20500;-61
2022/05/28 09:20:37;;;;;;;10.10;2.10;;;;;;;14.23;51.20;100631.13;5127195;27;20477;-60
2022/05/28 09:23:07;;;;;;;8.80;2.20;;;;;;;13.90;53.20;100630.84;5140263;27;20453;-63
2022/05/28 09:25:41;;;;;;;6.77;2.50;;;;;;;13.99;55.35;100643.38;5133678;27;20525;-61
2022/05/28 09:28:22;;;;;;;8.63;2.00;;;;;;;13.28;59.88;100633.28;5120081;28;20484;-61
2022/05/28 09:30:54;;;;;;;6.70;2.17;;;;;;;13.53;59.72;100653.28;5137716;27;21025;-61
2022/05/28 09:33:38;;;;;;;6.73;1.90;;;;;;;13.40;61.13;100650.94;5125539;27;20611;-61
2022/05/28 09:36:07;;;;;;;4.80;1.77;;;;;;;13.37;60.89;100645.88;5105050;27;20528;-61
2022/05/28 09:38:44;;;;;;;10.27;2.17;;;;;;;13.46;60.98;100644.97;5112757;28;20454;-61
2022/05/28 09:41:20;;;;;;;7.73;1.97;;;;;;;13.72;60.29;100647.78;5117480;28;20478;-62
2022/05/28 09:44:00;;;;;;;7.23;1.90;;;;;;;13.81;59.80;100651.41;5118994;28;20536;-62
2022/05/28 09:46:29;;;;;;;8.30;2.37;;;;;;;14.63;59.11;100630.66;5117682;28;20489;-62
2022/05/28 09:49:02;;;;;;;3.37;1.70;;;;;;;14.63;56.51;100629.78;5118656;28;20468;-62
2022/05/28 09:51:31;;;;;;;4.30;1.53;;;;;;;15.56;54.61;100631.78;5117600;28;20481;-62
2022/05/28 09:54:17;;;;;;;5.37;1.90;;;;;;;16.66;51.39;100628.84;5104918;28;20470;-62
2022/05/28 09:56:46;;;;;;;5.40;1.57;;;;;;;18.39;45.93;100624.31;5098238;28;20536;-62
2022/05/28 09:59:22;;;;;;;6.30;1.80;;;;;;;18.68;46.30;100624.53;5098344;28;20516;-63
2022/05/28 10:01:58;;;;;;;6.17;1.57;;;;;;;18.15;47.07;100636.19;5136412;27;20497;-62
2022/05/28 10:04:29;;;;;;;5.60;2.03;;;;;;;16.23;52.83;100657.88;5133102;28;20469;-62
2022/05/28 10:06:57;;;;;;;7.10;2.43;;;;;;;14.78;60.65;100665.06;5097623;28;20475;-62
2022/05/28 10:09:26;;;;;;;9.27;2.80;;;;;;;14.09;64.59;100662.94;5104648;28;20450;-63
2022/05/28 10:11:54;;;;;;;8.93;2.03;;;;;;;13.71;66.60;100662.25;5116854;28;20878;-62
2022/05/28 10:14:22;;;;;;;5.60;1.70;;;;;;;13.63;65.65;100653.25;5118414;28;20497;-62
2022/05/28 10:16:49;;;;;;;4.93;2.00;;;;;;;14.16;66.33;100656.97;5118814;28;20490;-62
2022/05/28 10:19:19;;;;;;;5.50;1.70;;;;;;;15.09;62.59;100645.72;5118916;28;20521;-62
2022/05/28 10:21:51;;;;;;;3.23;1.53;;;;;;;16.34;59.97;100646.78;5114683;28;20512;-62
2022/05/28 10:24:19;;;;;;;6.10;2.00;;;;;;;18.29;53.66;100645.38;5120315;28;20446;-62
2022/05/28 10:26:47;;;;;;;3.40;1.50;;;;;;;19.40;48.62;100642.09;5122605;28;20474;-62
2022/05/28 10:29:18;;;;;;;2.90;1.40;;;;;;;20.83;46.99;100635.84;5118578;28;20459;-62
2022/05/28 10:31:47;;;;;;;3.93;1.90;;;;;;;20.83;44.59;100633.13;5117597;28;20462;-62
2022/05/28 10:34:29;;;;;;;4.83;1.67;;;;;;;20.76;42.72;100631.38;5120306;28;20457;-62
2022/05/28 10:37:08;;;;;;;4.90;1.50;;;;;;;21.13;42.27;100621.16;5112719;28;20898;-62
2022/05/28 10:39:37;;;;;;;4.60;1.43;;;;;;;20.94;42.73;100633.59;5123094;28;20495;-62
2022/05/28 10:42:04;;;;;;;5.57;1.73;;;;;;;20.06;42.48;100615.72;5117170;28;20548;-61
2022/05/28 10:44:32;;;;;;;4.90;1.50;;;;;;;18.05;47.46;100617.50;5102148;28;20545;-61
2022/05/28 10:47:07;;;;;;;5.23;1.83;;;;;;;18.23;46.20;100616.34;5112683;28;20478;-61
2022/05/28 10:49:40;;;;;;;3.40;1.40;;;;;;;17.75;47.62;100607.53;5122723;28;20453;-61
2022/05/28 10:52:16;;;;;;;6.43;1.93;;;;;;;17.74;49.12;100616.66;5114665;27;20627;-61
2022/05/28 10:54:51;;;;;;;5.70;1.77;;;;;;;18.31;49.76;100612.72;5119139;28;20449;-61
2022/05/28 10:57:35;;;;;;;6.30;2.13;;;;;;;19.88;45.81;100618.06;5122235;28;20497;-61
2022/05/28 11:00:06;;;;;;;6.33;1.50;;;;;;;20.58;43.92;100618.25;5122128;28;20581;-60
2022/05/28 11:03:14;;;;;;;3.80;1.60;;;;;;;19.92;43.21;100606.59;5122404;28;20462;-61
2022/05/28 11:06:14;;;;;;;9.67;1.90;;;;;;;16.97;49.73;100601.97;5121432;28;20465;-62
2022/05/28 11:08:46;;;;;;;4.07;2.00;;;;;;;17.16;49.57;100602.59;5087444;28;20481;-61
2022/05/28 11:11:25;;;;;;;5.97;1.60;;;;;;;16.07;52.46;100610.16;5117708;28;20508;-61
2022/05/28 11:14:03;;;;;;;8.00;1.97;;;;;;;17.17;50.11;100598.84;5111863;28;21053;-61
2022/05/28 11:16:47;;;;;;;5.63;1.50;;;;;;;18.42;49.12;100591.47;5116395;28;20499;-62
2022/05/28 11:19:27;;;;;;;5.03;1.63;;;;;;;19.42;45.83;100585.78;5114944;28;20493;-62
2022/05/28 11:22:11;;;;;;;4.97;1.37;;;;;;;18.55;46.80;100590.00;5120223;28;21212;-62
2022/05/28 11:24:52;;;;;;;4.80;1.70;;;;;;;19.31;45.47;100576.28;5104019;28;20955;-62
2022/05/28 11:27:28;;;;;;;4.40;1.60;;;;;;;18.86;45.46;100573.59;5121037;28;20491;-62
2022/05/28 11:30:01;;;;;;;5.77;1.80;;;;;;;17.62;48.97;100594.56;5121935;28;20446;-61
2022/05/28 11:32:30;;;;;;;6.60;2.33;;;;;;;15.55;57.91;100617.44;5114915;28;20478;-60
2022/05/28 11:35:00;;;;;;;7.57;1.80;;;;;;;14.92;59.48;100621.41;5103058;28;20454;-63
2022/05/28 11:37:29;;;;;;;3.70;1.80;;;;;;;14.11;61.22;100611.69;5120189;28;20474;-62